Terminal Aerodrome Forecast
Issued by NWS

Home | Current Version | Previous Version | Graphics & Text | Print | Product List | Glossary Off
Versions: 1 2 3 4 5 6 7 8 9 10 11 12 13 14 15 16 17 18 19

000
FTUS43 KICT 270642 AAB
TAFHUT
TAF AMD
KHUT 270642Z 2707/2806 03017G22KT P6SM OVC013
     FM270800 02017G22KT P6SM OVC007
     FM271200 02013KT P6SM OVC013
     FM271700 03005KT P6SM SCT030 OVC130=

USA.gov is the U.S. government's official web portal to all federal, state and local government web resources and services.